Alamo, Nevada Weather observations

Data are for observation ending at time listed.
 Day   Time    Ave.   Ave.  Ave.  Vector   Max.   Stn.    Total    Solar   Ave.  
  of    of     Air    Rel.  Wind   Wind    Wind   Baro.  Precip.   Rad.    Soil  
Year   Day     Temp.  Hum.  Speed  Dir.    Gust   Pres.                    Temp. 
2015   (PST)    F      %     mph   deg.    mph     mb.     in.     W/m2     F   
------------------------------------------------------------------------------
  64    3:10   26.8    90    0.9    14      2.3   906.1    0.00       0    37.7
  64    3:20   26.8    91    0.2    17      1.0   906.2    0.00       0    37.6
  64    3:30   26.5    90    0.1    27      0.7   906.2    0.00       0    37.5
  64    3:40   26.6    91    0.1    18      0.7   906.2    0.00       0    37.4
  64    3:50   26.5    90    0.0   349      0.6   906.3    0.00       0    37.3
  64    4:00   26.2    90    0.3   249      1.1   906.4    0.00       0    37.3
  64    4:10   26.4    90    1.0   210      1.8   906.5    0.00       0    37.2
  64    4:20   26.4    90    0.6   200      1.9   906.6    0.00       0    37.0
  64    4:30   26.5    90    0.6   205      2.3   906.7    0.00       0    36.9
  64    4:40   26.5    89    0.1    32      1.7   906.7    0.00       0    36.9
  64    4:50   26.6    89    0.7   322      1.7   906.8    0.00       0    36.8
  64    5:00   26.6    89    0.0     0      0.0   906.9    0.00       0    36.7
  64    5:10   26.3    89    0.9   277      2.0   907.0    0.00       0    36.6
  64    5:20   26.2    88    1.4   290      2.4   907.0    0.00       0    36.5
  64    5:30   26.7    88    0.3   311      1.1   907.1    0.00       0    36.5
  64    5:40   26.5    87    0.4   239      1.7   907.1    0.00       0    36.4
  64    5:50   26.3    87    0.3   212      1.2   907.2    0.00       0    36.3
  64    6:00   26.1    87    0.1   261      0.9   907.3    0.00       0    36.2
  64    6:10   26.2    88    0.7   354      1.6   907.4    0.00       0    36.2
  64    6:20   26.1    87    1.2   305      2.6   907.5    0.00       1    36.1
  64    6:30   26.9    87    0.3   324      1.5   907.6    0.00      13    36.0
  64    6:40   26.7    86    0.0   336      0.4   907.8    0.00      14    36.0
  64    6:50   27.1    86    0.0     0      0.0   907.9    0.00      18    35.9
  64    7:00   28.1    85    0.7   356      3.3   908.1    0.00      29    35.8
  64    7:10   30.8    77    2.2   360      4.0   908.3    0.00      34    35.8
  64    7:20   33.2    69    1.4     5      4.4   908.2    0.00      32    35.8
  64    7:30   34.1    68    2.1    68      3.8   908.2    0.00      31    35.8
  64    7:40   35.0    63    2.3    60      4.3   908.2    0.00      27    35.8
  64    7:50   36.4    59    3.0    34      6.0   908.4    0.00      27    35.8
  64    8:00   37.3    58    2.9    33      5.7   908.6    0.00      31    35.7
  64    8:10   38.2    56    4.4    16      7.3   908.6    0.00      52    35.8
  64    8:20   39.9    55    4.4     4      7.2   908.6    0.00      28    35.8
  64    8:30   40.6    54    4.9     2      9.1   908.7    0.00      31    35.9
  64    8:40   41.1    52    4.5     4      7.9   908.7    0.00      38    35.9
  64    8:50   41.8    48    5.5     8      8.8   908.7    0.00      48    36.0
  64    9:00   42.8    46    4.7   342      7.8   908.6    0.00      43    36.0
  64    9:10   43.5    43    5.1   343      8.3   908.6    0.00     133    36.1
  64    9:20   43.7    44    5.4   353      9.2   908.6    0.00      43    36.2
  64    9:30   44.6    43    5.2   344      9.9   908.5    0.00      54    36.3
  64    9:40   45.3    42    5.2   345     10.0   908.5    0.00      46    36.5
  64    9:50   46.1    41    5.3   348      8.1   908.6    0.00      70    36.7
  64   10:00   47.4    39    4.5   336      8.9   908.5    0.00      41    36.9
  64   10:10   48.2    37    4.4   336      9.5   908.5    0.00      41    37.1
  64   10:20   48.9    36    3.9   332      8.4   908.5    0.00      41    37.3
  64   10:30   49.2    34    2.8   347      7.3   908.4    0.00      41    37.6
  64   10:40   50.6    32    3.5   322      7.4   908.3    0.00      41    37.9
  64   10:50   50.6    32    2.9   348      6.4   908.2    0.00      56    38.8
  64   11:00   51.0    30    3.3    12      6.6   908.1    0.00      60    39.9
  64   11:10   52.0    30    3.7   334      9.6   908.0    0.00     167    40.8
  64   11:20   52.9    29    4.2   346      7.2   907.9    0.00     131    41.6
  64   11:30   53.5    28    3.6   336      8.2   907.8    0.00     109    42.4
  64   11:40   54.3    28    3.2   310      7.7   907.6    0.00     144    43.1
  64   11:50   55.8    26    3.4   306      7.6   907.5    0.00     659    43.6
  64   12:00   55.4    25    2.9   314     10.2   907.4    0.00     830    44.0
  64   12:10   54.8    26    3.2    40      5.8   907.2    0.00     845    44.6
  64   12:20   56.1    25    2.6   350      6.7   907.1    0.00     844    45.5
  64   12:30   56.6    24    1.3    40      5.0   906.7    0.00     839    46.8
  64   12:40   57.6    23    2.7   357      7.2   906.5    0.00     836    48.2
  64   12:50   58.8    22    3.7   348      8.0   906.4    0.00     831    49.5
  64   13:00   60.1    18    2.6   305      6.4   906.2    0.00     823    50.8
  64   13:10   61.4    18    3.5   280      6.9   906.0    0.00     810    52.0
  64   13:20   60.1    19    2.0   343      6.7   905.9    0.00     801    53.1
  64   13:30   60.6    18    2.3   329      6.0   905.8    0.00     791    54.2
  64   13:40   61.0    17    3.0   356      6.0   905.6    0.00     771    55.2
  64   13:50   62.7    16    2.5   250      6.4   905.5    0.00     749    56.1
  64   14:00   63.7    16    2.4   263      5.8   905.4    0.00     731    56.9
  64   14:10   63.1    16    2.8   258      6.4   905.4    0.00     709    57.7
  64   14:20   64.0    14    1.4   305      5.9   905.4    0.00     686    58.4
  64   14:30   63.0    16    2.1   336      5.8   905.3    0.00     667    59.1
  64   14:40   64.0    16    3.3   272      6.4   905.3    0.00     636    59.8
  64   14:50   63.4    16    2.7   357      5.6   905.2    0.00     606    60.3
  64   15:00   63.8    16    2.0   297      4.4   905.2    0.00     581    60.7
  64   15:10   63.8    16    2.5   354      5.6   905.2    0.00     550    61.0
  64   15:20   65.0    16    3.4   277      7.6   905.2    0.00     516    61.3
  64   15:30   63.8    16    2.7   219      6.1   905.1    0.00     476    61.5
  64   15:40   64.9    16    2.3   263      4.4   905.0    0.00     448    61.6
  64   15:50   64.5    17    2.6   356      5.8   904.9    0.00     417    61.7
  64   16:00   62.9    18    2.8   345      6.1   904.9    0.00     378    61.7
  64   16:10   64.6    18    2.0   314      4.7   904.8    0.00     346    61.6
  64   16:20   65.0    18    3.4   294      5.8   904.8    0.00     308    61.3
  64   16:30   64.3    18    3.0   318      5.3   904.8    0.00     274    60.9
  64   16:40   63.1    19    2.7   336      4.7   904.8    0.00     238    60.4
  64   16:50   62.5    19    2.7   333      6.4   904.8    0.00     194    59.8
  64   17:00   61.6    20    2.7   286      4.5   904.8    0.00     134    59.3
  64   17:10   60.3    21    2.0   285      3.9   904.7    0.00      63    58.6
  64   17:20   59.5    22    1.1   256      2.3   904.7    0.00      26    58.0
  64   17:30   58.4    24    1.3   238      3.1   904.8    0.00      13    57.3
  64   17:40   56.2    30    1.3   252      2.6   904.8    0.00      10    56.7
  64   17:50   54.1    34    1.2   279      2.3   904.9    0.00       2    56.1
  64   18:00   52.6    36    1.0    27      2.0   905.0    0.00       0    55.5
  64   18:10   52.0    37    1.2   352      2.6   905.0    0.00       0    55.0
  64   18:20   51.3    37    1.3     4      3.1   905.1    0.00       0    54.4
  64   18:30   50.6    39    1.9   328      3.2   905.3    0.00       0    53.9
  64   18:40   49.4    41    1.4    37      3.2   905.4    0.00       0    53.4
  64   18:50   48.3    48    0.8   356      2.8   905.5    0.00       0    52.9
  64   19:00   46.5    51    0.5   183      1.6   905.6    0.00       0    52.4
  64   19:10   45.3    52    0.0     0      0.0   905.6    0.00       0    52.0
  64   19:20   44.9    56    0.4   359      1.6   905.7    0.00       0    51.5
  64   19:30   44.5    58    0.9    24      2.4   905.8    0.00       0    51.1
  64   19:40   43.5    64    0.4    18      1.9   905.9    0.00       0    50.7
  64   19:50   42.2    66    0.2   298      1.6   906.1    0.00       0    50.3
  64   20:00   42.1    66    2.1   337      3.9   906.2    0.00       0    49.9
  64   20:10   42.2    66    0.7    75      2.3   906.2    0.00       0    49.6
  64   20:20   41.9    65    0.4    26      1.2   906.3    0.00       0    49.2
  64   20:30   41.4    67    0.7   309      1.7   906.4    0.00       0    48.9
  64   20:40   41.0    68    0.7   299      1.6   906.5    0.00       0    48.6
  64   20:50   40.3    69    0.6   311      1.4   906.5    0.00       0    48.3
  64   21:00   40.1    71    0.6   356      1.5   906.4    0.00       0    48.0
  64   21:10   39.4    71    0.7    39      1.2   906.6    0.00       0    47.7
  64   21:20   38.6    74    0.3   356      1.2   906.6    0.00       0    47.4
  64   21:30   37.8    76    1.0    16      1.6   906.6    0.00       0    47.1
  64   21:40   37.4    77    1.2    48      2.0   906.7    0.00       0    46.9
  64   21:50   37.3    77    0.6   346      1.5   906.8    0.00       0    46.6
  64   22:00   36.7    78    0.3   325      1.7   906.8    0.00       0    46.3
  64   22:10   36.3    80    0.7     0      1.3   906.8    0.00       0    46.1
  64   22:20   35.9    80    0.8    22      1.7   906.8    0.00       0    45.8
  64   22:30   35.5    80    0.4   305      1.2   906.8    0.00       0    45.6
  64   22:40   34.8    81    0.5   292      1.5   906.8    0.00       0    45.3
  64   22:50   34.5    81    0.7   306      1.4   906.8    0.00       0    45.1
  64   23:00   34.2    81    0.1   293      0.9   906.8    0.00       0    44.9
  64   23:10   33.8    82    0.0     0      0.0   906.9    0.00       0    44.6
  64   23:20   33.7    83    0.0     0      0.0   907.0    0.00       0    44.4
  64   23:30   34.0    84    1.3   348      2.2   906.9    0.00       0    44.2
  64   23:40   34.0    82    0.6   343      1.5   906.9    0.00       0    44.0
  64   23:50   33.4    82    0.7   341      1.5   906.9    0.00       0    43.8
  65    0:00   33.1    83    0.7    55      1.8   906.9    0.00       0    43.6
  65    0:10   32.5    84    0.5    16      1.5   906.9    0.00       0    43.4
  65    0:20   32.1    85    0.3     4      1.2   906.9    0.00       0    43.2
  65    0:30   31.8    86    0.2     8      1.0   906.8    0.00       0    43.0
  65    0:40   31.6    87    0.8   334      1.5   906.9    0.00       0    42.8
  65    0:50   31.4    87    0.9   326      1.4   906.8    0.00       0    42.6
  65    1:00   31.3    87    0.3    43      1.3   906.8    0.00       0    42.4
  65    1:10   31.0    88    0.5   352      1.5   906.9    0.00       0    42.2
  65    1:20   31.0    88    0.6    32      1.2   906.8    0.00       0    42.0
  65    1:30   30.7    88    1.3    50      1.9   906.8    0.00       0    41.8
  65    1:40   30.5    88    1.0   350      1.6   906.8    0.00       0    41.7
  65    1:50   30.0    88    0.4   302      1.2   906.8    0.00       0    41.5
  65    2:00   29.9    88    0.0     0      0.0   906.7    0.00       0    41.4
  65    2:10   30.0    87    0.3    31      1.7   906.6    0.00       0    41.2
  65    2:20   30.0    88    1.3    21      2.0   906.6    0.00       0    41.0
  65    2:30   29.8    88    0.5   338      1.4   906.6    0.00       0    40.8
  65    2:40   29.4    88    0.6   300      1.7   906.5    0.00       0    40.7
  65    2:50   29.2    88    0.3    19      1.5   906.6    0.00       0    40.5
  65    3:00   29.3    89    0.5    55      1.8   906.6    0.00       0    40.4

Return to Alamo, Nevada graphs page.


Western Regional Climate Center,wrcc@dri.edu